createdAt,value
2018-04-26T00:00:44.681Z,0
2018-04-26T00:01:44.682Z,0
2018-04-26T00:02:44.917Z,0
2018-04-26T00:03:44.659Z,0
2018-04-26T00:04:44.667Z,0
2018-04-26T00:05:44.928Z,0
2018-04-26T00:06:44.685Z,0
2018-04-26T00:07:44.656Z,0
2018-04-26T00:08:44.897Z,0
2018-04-26T00:09:44.900Z,0
2018-04-26T00:10:44.909Z,0
2018-04-26T00:11:44.649Z,0
2018-04-26T00:12:44.684Z,0
2018-04-26T00:13:44.643Z,0
2018-04-26T00:14:44.911Z,0
2018-04-26T00:15:45.351Z,0
2018-04-26T00:16:44.651Z,0
2018-04-26T00:17:44.891Z,0
2018-04-26T00:18:44.390Z,0
2018-04-26T00:19:44.886Z,0
2018-04-26T00:20:44.959Z,0
2018-04-26T00:21:44.635Z,0
2018-04-26T00:22:44.881Z,0
2018-04-26T00:23:44.887Z,0
2018-04-26T00:24:44.634Z,0
2018-04-26T00:25:44.868Z,0
2018-04-26T00:26:44.628Z,0
2018-04-26T00:27:44.635Z,0
2018-04-26T00:28:44.361Z,0
2018-04-26T00:29:44.877Z,0
2018-04-26T00:30:44.864Z,0
2018-04-26T00:31:44.890Z,0
2018-04-26T00:32:44.618Z,0
2018-04-26T00:33:44.620Z,0
2018-04-26T00:34:44.607Z,0
2018-04-26T00:35:44.862Z,0
2018-04-26T00:36:44.851Z,0
2018-04-26T00:37:44.872Z,0
2018-04-26T00:38:44.595Z,0
2018-04-26T00:39:44.599Z,0
2018-04-26T00:40:44.596Z,0
2018-04-26T00:41:44.839Z,0
2018-04-26T00:42:44.832Z,0
2018-04-26T00:43:44.588Z,0
2018-04-26T00:44:44.584Z,0
2018-04-26T00:45:44.850Z,0
2018-04-26T00:46:46.701Z,0
2018-04-26T00:47:44.346Z,0
2018-04-26T00:48:44.330Z,0
2018-04-26T00:49:44.579Z,0
2018-04-26T00:50:44.586Z,0
2018-04-26T00:51:44.588Z,0
2018-04-26T00:52:44.818Z,0
2018-04-26T00:53:44.817Z,0
2018-04-26T00:54:44.823Z,0
2018-04-26T00:55:44.816Z,0
2018-04-26T00:56:44.566Z,0
2018-04-26T00:57:44.812Z,0
2018-04-26T00:58:44.824Z,0
2018-04-26T00:59:44.308Z,0
2018-04-26T01:00:44.311Z,0
2018-04-26T01:01:44.775Z,0
2018-04-26T01:02:44.831Z,0
2018-04-26T01:03:44.299Z,0
2018-04-26T01:04:44.813Z,0
2018-04-26T01:05:44.556Z,0
2018-04-26T01:06:44.563Z,0
2018-04-26T01:07:44.787Z,0
2018-04-26T01:08:44.549Z,0
2018-04-26T01:09:44.793Z,0
2018-04-26T01:10:44.542Z,0
2018-04-26T01:11:44.538Z,0
2018-04-26T01:12:44.789Z,0
2018-04-26T01:13:44.034Z,0
2018-04-26T01:14:44.303Z,0
2018-04-26T01:15:44.561Z,0
2018-04-26T01:16:47.239Z,0
2018-04-26T01:17:44.774Z,0
2018-04-26T01:18:44.520Z,0
2018-04-26T01:19:44.284Z,0
2018-04-26T01:20:44.517Z,0
2018-04-26T01:21:44.773Z,0
2018-04-26T01:22:44.543Z,0
2018-04-26T01:23:44.761Z,0
2018-04-26T01:24:44.785Z,0
2018-04-26T01:25:44.524Z,0
2018-04-26T01:26:44.777Z,0
2018-04-26T01:27:44.765Z,0
2018-04-26T01:28:44.748Z,0
2018-04-26T01:29:44.779Z,0
2018-04-26T01:30:44.572Z,0
2018-04-26T01:31:44.505Z,0
2018-04-26T01:32:44.250Z,0
2018-04-26T01:33:44.740Z,0
2018-04-26T01:34:44.743Z,0
2018-04-26T01:35:44.844Z,0
2018-04-26T01:36:44.768Z,0
2018-04-26T01:37:44.740Z,0
2018-04-26T01:38:44.730Z,0
2018-04-26T01:39:44.490Z,0
2018-04-26T01:40:44.725Z,0
2018-04-26T01:41:44.493Z,0
2018-04-26T01:42:44.486Z,0
2018-04-26T01:43:44.493Z,0
2018-04-26T01:44:44.725Z,0
2018-04-26T01:45:44.727Z,0
2018-04-26T01:46:48.180Z,0
2018-04-26T01:47:44.726Z,0
2018-04-26T01:48:44.708Z,0
2018-04-26T01:49:44.217Z,0
2018-04-26T01:50:44.215Z,0
2018-04-26T01:51:44.465Z,0
2018-04-26T01:52:44.460Z,0
2018-04-26T01:53:44.459Z,0
2018-04-26T01:54:44.701Z,0
2018-04-26T01:55:44.701Z,0
2018-04-26T01:56:44.468Z,0
2018-04-26T01:57:44.709Z,0
2018-04-26T01:58:44.700Z,0
2018-04-26T01:59:44.703Z,0
2018-04-26T02:00:44.699Z,0
2018-04-26T02:01:44.494Z,0
2018-04-26T02:02:44.191Z,0
2018-04-26T02:03:44.699Z,0
2018-04-26T02:04:44.449Z,0
2018-04-26T02:05:44.438Z,0
2018-04-26T02:06:44.683Z,0
2018-04-26T02:07:44.426Z,0
2018-04-26T02:08:44.422Z,0
2018-04-26T02:09:44.437Z,0
2018-04-26T02:10:44.418Z,0
2018-04-26T02:11:44.439Z,0
2018-04-26T02:12:44.743Z,0
2018-04-26T02:13:44.419Z,0
2018-04-26T02:14:44.172Z,0
2018-04-26T02:15:44.659Z,0
2018-04-26T02:16:44.165Z,0
2018-04-26T02:17:47.860Z,0
2018-04-26T02:18:44.653Z,0
2018-04-26T02:19:44.649Z,0
2018-04-26T02:20:44.395Z,0
2018-04-26T02:21:44.401Z,0
2018-04-26T02:22:44.642Z,0
2018-04-26T02:23:44.398Z,0
2018-04-26T02:24:44.386Z,0
2018-04-26T02:25:44.642Z,0
2018-04-26T02:26:44.389Z,0
2018-04-26T02:27:44.641Z,0
2018-04-26T02:28:44.636Z,0
2018-04-26T02:29:44.639Z,0
2018-04-26T02:30:44.401Z,0
2018-04-26T02:31:44.635Z,0
2018-04-26T02:32:44.639Z,0
2018-04-26T02:33:44.684Z,0
2018-04-26T02:34:44.632Z,0
2018-04-26T02:35:44.389Z,0
2018-04-26T02:36:44.389Z,0
2018-04-26T02:37:44.358Z,0
2018-04-26T02:38:44.137Z,0
2018-04-26T02:39:44.618Z,0
2018-04-26T02:40:44.355Z,0
2018-04-26T02:41:44.374Z,0
2018-04-26T02:42:44.365Z,0
2018-04-26T02:43:44.382Z,0
2018-04-26T02:44:44.594Z,0
2018-04-26T02:45:44.398Z,0
2018-04-26T02:46:44.346Z,0
2018-04-26T02:47:46.485Z,0
2018-04-26T02:48:44.599Z,0
2018-04-26T02:49:44.601Z,0
2018-04-26T02:50:44.106Z,0
2018-04-26T02:51:44.585Z,0
2018-04-26T02:52:44.339Z,0
2018-04-26T02:53:44.682Z,0
2018-04-26T02:54:44.582Z,0
2018-04-26T02:55:44.593Z,0
2018-04-26T02:56:44.321Z,0
2018-04-26T02:57:44.312Z,0
2018-04-26T02:58:44.580Z,0
2018-04-26T02:59:44.313Z,0
2018-04-26T03:00:44.565Z,0
2018-04-26T03:01:44.582Z,0
2018-04-26T03:02:44.568Z,0
2018-04-26T03:03:44.349Z,0
2018-04-26T03:04:44.049Z,0
2018-04-26T03:05:44.553Z,0
2018-04-26T03:06:44.049Z,0
2018-04-26T03:07:44.544Z,0
2018-04-26T03:08:44.287Z,0
2018-04-26T03:09:44.542Z,0
2018-04-26T03:10:44.547Z,0
2018-04-26T03:11:44.036Z,0
2018-04-26T03:12:44.317Z,0
2018-04-26T03:13:44.047Z,0
2018-04-26T03:14:44.531Z,0
2018-04-26T03:15:44.531Z,0
2018-04-26T03:16:44.280Z,0
2018-04-26T03:17:44.015Z,0
2018-04-26T03:18:44.266Z,0
2018-04-26T03:19:44.516Z,0
2018-04-26T03:20:44.514Z,0
2018-04-26T03:21:44.517Z,0
2018-04-26T03:22:44.260Z,0
2018-04-26T03:23:44.266Z,0
2018-04-26T03:24:43.996Z,0
2018-04-26T03:25:44.244Z,0
2018-04-26T03:26:44.546Z,0
2018-04-26T03:27:44.493Z,0
2018-04-26T03:28:44.492Z,0
2018-04-26T03:29:44.507Z,0
2018-04-26T03:37:29.162Z,0
2018-04-26T03:37:53.717Z,0
2018-04-26T03:38:53.965Z,0
2018-04-26T03:39:53.708Z,0
2018-04-26T03:40:53.955Z,0
2018-04-26T03:41:53.962Z,0
2018-04-26T03:42:53.717Z,0
2018-04-26T03:43:53.956Z,0
2018-04-26T03:44:53.998Z,4
2018-04-26T03:45:53.707Z,4
2018-04-26T03:46:53.947Z,0
2018-04-26T03:47:53.696Z,0
2018-04-26T03:48:53.689Z,4
2018-04-26T03:49:53.933Z,4
2018-04-26T03:50:53.972Z,4
2018-04-26T03:51:53.684Z,8
2018-04-26T03:52:59.242Z,4
2018-04-26T03:53:53.680Z,4
2018-04-26T03:54:53.673Z,8
2018-04-26T03:55:53.948Z,8
2018-04-26T03:56:53.920Z,8
2018-04-26T03:57:53.919Z,8
2018-04-26T03:58:53.919Z,12
2018-04-26T03:59:53.749Z,16
2018-04-26T04:00:53.910Z,12
2018-04-26T04:01:53.662Z,16
2018-04-26T04:02:53.404Z,16
2018-04-26T04:03:53.650Z,20
2018-04-26T04:04:53.909Z,24
2018-04-26T04:05:53.657Z,32
2018-04-26T04:06:53.649Z,36
2018-04-26T04:07:53.640Z,36
2018-04-26T04:08:53.886Z,40
2018-04-26T04:09:53.894Z,44
2018-04-26T04:10:53.638Z,44
2018-04-26T04:11:53.638Z,44
2018-04-26T04:12:53.882Z,48
2018-04-26T04:13:53.516Z,48
2018-04-26T04:14:53.875Z,48
2018-04-26T04:15:53.867Z,48
2018-04-26T04:16:53.626Z,48
2018-04-26T04:17:53.639Z,52
2018-04-26T04:18:53.360Z,56
2018-04-26T04:19:53.870Z,60
2018-04-26T04:20:53.609Z,64
2018-04-26T04:21:53.864Z,64
2018-04-26T04:22:55.061Z,64
2018-04-26T04:23:53.861Z,68
2018-04-26T04:24:53.857Z,68
2018-04-26T04:25:53.847Z,72
2018-04-26T04:26:53.855Z,80
2018-04-26T04:27:53.892Z,92
2018-04-26T04:28:53.589Z,108
2018-04-26T04:29:53.606Z,128
2018-04-26T04:30:53.835Z,148
2018-04-26T04:31:53.910Z,164
2018-04-26T04:32:53.574Z,180
2018-04-26T04:33:53.586Z,200
2018-04-26T04:34:53.605Z,220
2018-04-26T04:35:53.570Z,236
2018-04-26T04:36:53.815Z,252
2018-04-26T04:37:53.812Z,272
2018-04-26T04:38:53.823Z,304
2018-04-26T04:39:53.882Z,344
2018-04-26T04:40:53.834Z,380
2018-04-26T04:41:53.561Z,420
2018-04-26T04:42:53.798Z,448
2018-04-26T04:43:53.297Z,468
2018-04-26T04:44:53.804Z,504
2018-04-26T04:45:53.852Z,540
2018-04-26T04:46:53.548Z,580
2018-04-26T04:47:53.803Z,620
2018-04-26T04:48:53.813Z,676
2018-04-26T04:49:53.534Z,748
2018-04-26T04:50:53.290Z,808
2018-04-26T04:51:53.785Z,836
2018-04-26T04:52:53.541Z,880
2018-04-26T04:53:53.776Z,936
2018-04-26T04:54:53.536Z,1008
2018-04-26T04:55:53.533Z,1080
2018-04-26T04:56:53.532Z,1184
2018-04-26T04:57:53.776Z,1256
2018-04-26T04:58:53.526Z,1296
2018-04-26T04:59:53.526Z,1336
2018-04-26T05:00:53.528Z,1400
2018-04-26T05:01:53.526Z,1488
2018-04-26T05:02:53.749Z,1644
2018-04-26T05:03:53.755Z,1720
2018-04-26T05:04:53.499Z,1756
2018-04-26T05:05:53.747Z,1868
2018-04-26T05:06:53.260Z,2116
2018-04-26T05:07:53.743Z,2304
2018-04-26T05:08:53.487Z,2512
2018-04-26T05:09:53.509Z,2712
2018-04-26T05:10:53.760Z,2860
2018-04-26T05:11:53.749Z,2724
2018-04-26T05:12:53.734Z,2588
2018-04-26T05:13:53.348Z,2448
2018-04-26T05:14:53.737Z,2300
2018-04-26T05:15:53.734Z,2236
2018-04-26T05:16:53.721Z,2244
2018-04-26T05:17:53.472Z,2248
2018-04-26T05:18:53.241Z,2344
2018-04-26T05:19:53.903Z,2276
2018-04-26T05:20:53.465Z,2264
2018-04-26T05:21:53.712Z,2328
2018-04-26T05:22:53.468Z,2428
2018-04-26T05:23:56.809Z,2476
2018-04-26T05:24:53.466Z,2540
2018-04-26T05:25:53.640Z,2692
2018-04-26T05:26:53.528Z,2896
2018-04-26T05:27:53.447Z,3152
2018-04-26T05:28:53.692Z,3404
2018-04-26T05:29:53.448Z,3468
2018-04-26T05:30:53.762Z,3816
2018-04-26T05:31:53.446Z,3764
2018-04-26T05:32:53.443Z,4248
2018-04-26T05:33:53.204Z,4664
2018-04-26T05:34:53.424Z,4412
2018-04-26T05:35:53.492Z,4188
2018-04-26T05:36:53.431Z,4312
2018-04-26T05:37:53.179Z,3636
2018-04-26T05:38:53.680Z,4728
2018-04-26T05:39:53.679Z,5036
2018-04-26T05:40:53.665Z,5128
2018-04-26T05:41:53.673Z,5172
2018-04-26T05:42:53.661Z,5104
2018-04-26T05:43:53.431Z,5196
2018-04-26T05:44:53.665Z,5252
2018-04-26T05:45:53.415Z,5332
2018-04-26T05:46:53.665Z,11208
2018-04-26T05:47:53.162Z,4876
2018-04-26T05:48:53.672Z,4420
2018-04-26T05:49:53.164Z,4076
2018-04-26T05:50:53.422Z,3900
2018-04-26T05:51:53.655Z,4852
2018-04-26T05:52:53.425Z,5124
2018-04-26T05:53:55.661Z,5144
2018-04-26T05:54:53.664Z,5712
2018-04-26T05:55:53.386Z,5856
2018-04-26T05:56:53.409Z,6112
2018-04-26T05:57:53.666Z,6332
2018-04-26T05:58:52.909Z,6464
2018-04-26T05:59:53.395Z,6596
2018-04-26T06:00:53.408Z,6796
2018-04-26T06:01:53.652Z,7040
2018-04-26T06:02:53.659Z,7256
2018-04-26T06:03:53.967Z,7268
2018-04-26T06:04:53.638Z,6988
2018-04-26T06:05:53.647Z,6620
2018-04-26T06:06:53.392Z,5792
2018-04-26T06:07:53.647Z,6244
2018-04-26T06:08:53.651Z,5368
2018-04-26T06:09:53.642Z,5024
2018-04-26T06:10:53.410Z,4844
2018-04-26T06:11:53.393Z,4924
2018-04-26T06:12:52.898Z,5256
2018-04-26T06:22:11.347Z,13812
2018-04-26T06:23:11.350Z,14472
2018-04-26T06:24:11.350Z,14268
2018-04-26T06:25:12.635Z,15744
2018-04-26T06:26:11.336Z,15744
2018-04-26T06:27:12.206Z,15808
2018-04-26T06:28:11.367Z,17152
2018-04-26T06:29:11.107Z,16544
2018-04-26T06:30:12.319Z,16320
2018-04-26T06:31:11.261Z,16352
2018-04-26T06:32:11.104Z,16096
2018-04-26T06:33:11.352Z,15744
2018-04-26T06:34:11.112Z,15456
2018-04-26T06:35:12.335Z,15072
2018-04-26T06:36:11.434Z,11272
2018-04-26T06:37:11.375Z,6180
2018-04-26T06:38:11.380Z,5508
2018-04-26T06:39:11.387Z,7472
2018-04-26T06:40:12.744Z,5664
2018-04-26T06:41:11.385Z,4512
2018-04-26T06:42:11.194Z,4252
2018-04-26T06:43:11.403Z,4176
2018-04-26T06:44:11.150Z,3980
2018-04-26T06:45:12.425Z,3924
2018-04-26T06:46:11.420Z,3712
2018-04-26T06:47:11.413Z,3352
2018-04-26T06:48:11.414Z,3220
2018-04-26T06:49:11.171Z,3184
2018-04-26T06:50:11.901Z,3184
2018-04-26T06:51:11.441Z,3192
2018-04-26T06:52:11.440Z,3176
2018-04-26T06:53:11.436Z,3004
2018-04-26T06:54:11.181Z,2732
2018-04-26T06:55:12.239Z,2716
2018-04-26T06:56:11.182Z,2692
2018-04-26T06:57:15.533Z,2560
2018-04-26T06:58:11.458Z,2616
2018-04-26T06:59:11.185Z,2788
2018-04-26T07:00:12.450Z,2824
2018-04-26T07:01:11.188Z,2720
2018-04-26T07:02:11.455Z,2556
2018-04-26T07:03:10.952Z,2580
2018-04-26T07:04:11.194Z,2804
2018-04-26T07:05:12.164Z,2884
2018-04-26T07:06:11.440Z,2616
2018-04-26T07:07:11.467Z,2348
2018-04-26T07:08:11.194Z,2204
2018-04-26T07:09:11.446Z,2108
2018-04-26T07:10:12.626Z,2036
2018-04-26T07:11:11.446Z,1972
2018-04-26T07:12:11.136Z,1936
2018-04-26T07:13:11.454Z,2040
2018-04-26T07:14:11.191Z,2236
2018-04-26T07:15:12.806Z,2372
2018-04-26T07:16:11.478Z,2428
2018-04-26T07:17:10.735Z,2380
2018-04-26T07:18:11.842Z,2360
2018-04-26T07:19:11.444Z,2428
2018-04-26T07:20:12.398Z,2600
2018-04-26T07:21:11.196Z,2724
2018-04-26T07:22:11.446Z,2720
2018-04-26T07:23:11.440Z,2824
2018-04-26T07:24:10.938Z,2952
2018-04-26T07:25:12.779Z,3048
2018-04-26T07:26:11.442Z,3128
2018-04-26T07:27:11.430Z,3128
2018-04-26T07:28:12.481Z,3100
2018-04-26T07:29:11.431Z,3344
2018-04-26T07:30:12.397Z,3756
2018-04-26T07:31:11.179Z,3912
2018-04-26T07:32:11.195Z,4260
2018-04-26T07:33:11.172Z,4260
2018-04-26T07:34:11.178Z,3936
2018-04-26T07:35:12.086Z,3904
2018-04-26T07:36:11.170Z,3904
2018-04-26T07:37:11.417Z,3932
2018-04-26T07:38:11.174Z,3900
2018-04-26T07:39:11.418Z,4104
2018-04-26T07:40:12.263Z,4400
2018-04-26T07:41:11.461Z,4444
2018-04-26T07:42:11.165Z,4376
2018-04-26T07:43:12.277Z,4412
2018-04-26T07:44:11.408Z,4612
2018-04-26T07:45:11.970Z,4596
2018-04-26T07:46:11.159Z,4640
2018-04-26T07:47:11.412Z,4656
2018-04-26T07:48:11.411Z,4828
2018-04-26T07:49:11.407Z,5148
2018-04-26T07:50:12.356Z,5764
2018-04-26T07:51:10.917Z,5868
2018-04-26T07:52:11.405Z,5892
2018-04-26T07:53:11.326Z,5868
2018-04-26T07:54:11.152Z,5772
2018-04-26T07:55:12.494Z,5684
2018-04-26T07:56:10.909Z,5452
2018-04-26T07:57:11.154Z,5160
2018-04-26T07:58:12.442Z,4932
2018-04-26T07:59:11.390Z,4864
2018-04-26T08:00:12.912Z,4840
2018-04-26T08:01:11.396Z,4812
2018-04-26T08:02:11.389Z,4688
2018-04-26T08:03:11.398Z,4612
2018-04-26T08:04:10.884Z,4552
2018-04-26T08:05:12.713Z,4580
2018-04-26T08:06:11.381Z,4668
2018-04-26T08:07:11.391Z,4804
2018-04-26T08:08:10.879Z,4896
2018-04-26T08:09:11.554Z,4808
2018-04-26T08:10:12.285Z,4672
2018-04-26T08:11:11.559Z,4712
2018-04-26T08:12:11.390Z,5052
2018-04-26T08:13:11.122Z,5248
2018-04-26T08:14:11.925Z,5364
2018-04-26T08:15:12.229Z,5428
2018-04-26T08:16:11.125Z,5536
2018-04-26T08:17:11.362Z,5740
2018-04-26T08:18:11.354Z,5968
2018-04-26T08:19:11.116Z,6404
2018-04-26T08:20:12.180Z,6564
2018-04-26T08:21:11.357Z,6472
2018-04-26T08:22:11.357Z,6512
2018-04-26T08:23:11.428Z,6644
2018-04-26T08:24:11.358Z,6764
2018-04-26T08:25:13.066Z,6740
2018-04-26T08:26:11.359Z,6872
2018-04-26T08:27:11.105Z,6956
2018-04-26T08:28:11.096Z,7136
2018-04-26T08:29:14.552Z,7204
2018-04-26T08:30:12.361Z,7380
2018-04-26T08:31:11.360Z,7464
2018-04-26T08:32:11.354Z,7496
2018-04-26T08:33:11.092Z,7524
2018-04-26T08:34:11.352Z,7556
2018-04-26T08:35:12.618Z,7664
2018-04-26T08:36:11.101Z,7776
2018-04-26T08:37:11.355Z,7936
2018-04-26T08:38:11.341Z,8056
2018-04-26T08:39:11.090Z,8172
2018-04-26T08:40:12.240Z,8316
2018-04-26T08:41:10.836Z,8376
2018-04-26T08:42:11.356Z,8404
2018-04-26T08:43:11.338Z,8496
2018-04-26T08:44:11.335Z,8428
2018-04-26T08:45:13.658Z,8292
2018-04-26T08:46:11.095Z,8384
2018-04-26T08:47:11.072Z,8452
2018-04-26T08:48:10.825Z,8528
2018-04-26T08:49:11.349Z,8472
2018-04-26T08:50:12.591Z,8392
2018-04-26T08:51:10.823Z,8400
2018-04-26T08:52:11.349Z,8436
2018-04-26T08:53:11.082Z,8440
2018-04-26T08:54:11.072Z,8372
2018-04-26T08:55:11.668Z,8212
2018-04-26T08:56:11.349Z,8296
2018-04-26T08:57:11.353Z,8384
2018-04-26T08:58:11.107Z,8464
2018-04-26T08:59:11.111Z,8492
2018-04-26T09:00:13.309Z,8312
2018-04-26T09:01:11.067Z,8208
2018-04-26T09:02:11.067Z,8260
2018-04-26T09:03:11.092Z,7932
2018-04-26T09:04:11.076Z,7360
2018-04-26T09:05:12.753Z,7020
2018-04-26T09:06:11.314Z,6988
2018-04-26T09:07:11.075Z,7240
2018-04-26T09:08:11.342Z,7360
2018-04-26T09:09:11.072Z,7452
2018-04-26T09:10:12.108Z,7440
2018-04-26T09:11:11.081Z,7220
2018-04-26T09:12:11.321Z,7220
2018-04-26T09:13:11.311Z,6996
2018-04-26T09:14:11.073Z,6920
2018-04-26T09:15:11.665Z,6992
2018-04-26T09:16:10.816Z,7312
2018-04-26T09:17:11.333Z,7396
2018-04-26T09:18:11.316Z,7728
2018-04-26T09:19:11.078Z,7420
2018-04-26T09:20:12.206Z,7456
2018-04-26T09:21:11.365Z,12408
2018-04-26T09:22:11.184Z,7976
2018-04-26T09:23:11.070Z,11260
2018-04-26T09:24:11.366Z,11176
2018-04-26T09:25:12.167Z,12676
2018-04-26T09:26:11.316Z,6956
2018-04-26T09:27:11.066Z,11984
2018-04-26T09:28:11.118Z,12500
2018-04-26T09:29:11.333Z,12628
2018-04-26T09:30:12.776Z,12976
2018-04-26T09:31:11.106Z,9260
2018-04-26T09:32:11.188Z,8856
2018-04-26T09:33:11.307Z,8120
2018-04-26T09:34:11.325Z,12444
2018-04-26T09:35:12.539Z,7776
2018-04-26T09:36:11.069Z,12908
2018-04-26T09:37:11.140Z,13224
2018-04-26T09:38:11.316Z,10620
2018-04-26T09:39:11.089Z,12980
2018-04-26T09:40:12.269Z,13924
2018-04-26T09:41:11.086Z,13740
2018-04-26T09:42:11.116Z,8724
2018-04-26T09:43:11.119Z,8492
2018-04-26T09:44:11.096Z,13656
2018-04-26T09:45:12.279Z,13976
2018-04-26T09:46:11.683Z,11472
2018-04-26T09:47:10.826Z,10752
2018-04-26T09:48:11.335Z,14320
2018-04-26T09:49:10.844Z,13892
2018-04-26T09:50:12.263Z,14096
2018-04-26T09:51:11.337Z,14112
2018-04-26T09:52:11.074Z,13532
2018-04-26T09:53:11.084Z,12616
2018-04-26T09:54:11.344Z,11924
2018-04-26T09:55:12.011Z,11340
2018-04-26T09:56:11.080Z,10340
2018-04-26T09:57:11.094Z,10568
2018-04-26T09:58:11.089Z,6604
2018-04-26T09:59:10.831Z,9616
2018-04-26T10:00:12.076Z,9852
2018-04-26T10:01:11.142Z,9560
2018-04-26T10:02:10.836Z,9544
2018-04-26T10:03:11.092Z,9396
2018-04-26T10:04:11.342Z,9304
2018-04-26T10:05:12.605Z,9580
2018-04-26T10:06:11.407Z,6020
2018-04-26T10:07:11.095Z,6752
2018-04-26T10:08:11.105Z,9660
2018-04-26T10:09:10.592Z,9812
2018-04-26T10:10:12.271Z,10076
2018-04-26T10:11:11.121Z,10308
2018-04-26T10:12:10.844Z,10600
2018-04-26T10:13:11.360Z,10684
2018-04-26T10:14:11.096Z,10848
2018-04-26T10:15:12.446Z,11044
2018-04-26T10:16:11.139Z,11484
2018-04-26T10:17:11.259Z,11748
2018-04-26T10:18:10.868Z,11528
2018-04-26T10:19:10.845Z,11212
2018-04-26T10:20:12.437Z,10776
2018-04-26T10:21:11.593Z,10628
2018-04-26T10:22:11.362Z,10748
2018-04-26T10:53:09.789Z,9276
2018-04-26T10:54:08.530Z,6436
2018-04-26T10:55:09.561Z,6448
2018-04-26T10:56:08.760Z,7208
2018-04-26T10:57:08.513Z,7000
2018-04-26T10:58:09.418Z,5696
2018-04-26T10:59:09.018Z,6324
2018-04-26T11:00:09.341Z,5392
2018-04-26T11:01:09.246Z,5268
2018-04-26T11:02:09.004Z,5764
2018-04-26T11:03:09.003Z,7692
2018-04-26T11:04:09.003Z,8716
2018-04-26T11:05:09.379Z,6948
2018-04-26T11:06:09.014Z,8108
2018-04-26T11:07:09.007Z,5124
2018-04-26T11:08:09.258Z,5156
2018-04-26T11:09:08.918Z,8032
2018-04-26T11:10:09.324Z,5044
2018-04-26T11:11:08.764Z,5132
2018-04-26T11:12:08.757Z,5128
2018-04-26T11:13:09.004Z,5168
2018-04-26T11:14:08.748Z,5296
2018-04-26T11:15:09.752Z,8348
2018-04-26T11:16:09.253Z,6880
2018-04-26T11:17:09.269Z,8352
2018-04-26T11:18:09.332Z,9164
2018-04-26T11:19:09.251Z,9232
2018-04-26T11:20:09.096Z,9000
2018-04-26T11:21:09.253Z,8608
2018-04-26T11:22:09.000Z,8112
2018-04-26T11:23:09.015Z,8364
2018-04-26T11:24:09.258Z,7452
2018-04-26T11:25:09.645Z,8788
2018-04-26T11:26:09.011Z,8824
2018-04-26T11:27:09.012Z,8744
2018-04-26T11:28:08.754Z,8892
2018-04-26T11:29:09.264Z,6916
2018-04-26T11:30:09.157Z,8860
2018-04-26T11:31:09.216Z,9104
2018-04-26T11:32:09.250Z,9416
2018-04-26T11:33:09.248Z,7524
2018-04-26T11:34:09.000Z,9876
2018-04-26T11:35:09.681Z,10172
2018-04-26T11:36:09.116Z,8256
2018-04-26T11:37:09.260Z,10960
2018-04-26T11:38:09.268Z,11180
2018-04-26T11:39:08.998Z,11152
2018-04-26T11:40:09.332Z,11348
2018-04-26T11:41:09.257Z,11152
2018-04-26T11:42:09.258Z,10892
2018-04-26T11:43:09.297Z,10952
2018-04-26T11:44:08.769Z,10776
2018-04-26T11:45:09.694Z,11284
2018-04-26T11:46:09.028Z,11256
2018-04-26T11:47:09.014Z,11156
2018-04-26T11:48:08.767Z,10772
2018-04-26T11:49:09.269Z,9288
2018-04-26T11:50:09.441Z,11836
2018-04-26T11:51:09.032Z,12052
2018-04-26T11:52:09.272Z,10052
2018-04-26T11:53:09.044Z,10276
2018-04-26T11:54:09.274Z,10436
2018-04-26T11:55:09.392Z,10480
2018-04-26T11:56:09.053Z,10368
2018-04-26T11:57:09.057Z,9864
2018-04-26T11:58:09.048Z,9288
2018-04-26T11:59:09.047Z,10700
2018-04-26T12:00:09.066Z,9484
2018-04-26T12:01:09.032Z,10016
2018-04-26T12:02:09.320Z,10060
2018-04-26T12:03:09.301Z,10196
2018-04-26T12:04:09.049Z,10420
2018-04-26T12:05:09.469Z,8216
2018-04-26T12:06:09.051Z,7768
2018-04-26T12:07:09.054Z,7260
2018-04-26T12:08:11.258Z,7904
2018-04-26T12:09:09.305Z,9312
2018-04-26T12:10:09.656Z,9160
2018-04-26T12:11:09.056Z,8164
2018-04-26T12:12:09.052Z,6944
2018-04-26T12:13:09.065Z,9292
2018-04-26T12:14:09.053Z,9364
2018-04-26T12:15:09.483Z,7476
2018-04-26T12:16:09.059Z,7636
2018-04-26T12:17:09.058Z,7836
2018-04-26T12:18:09.061Z,9764
2018-04-26T12:19:08.812Z,9620
2018-04-26T12:20:09.778Z,7564
2018-04-26T12:21:09.069Z,7796
2018-04-26T12:22:09.321Z,7064
2018-04-26T12:23:09.320Z,6892
2018-04-26T12:24:09.177Z,6736
2018-04-26T12:25:09.553Z,6716
2018-04-26T12:26:09.073Z,6652
2018-04-26T12:27:09.147Z,6616
2018-04-26T12:28:09.091Z,6980
2018-04-26T12:29:09.477Z,7568
2018-04-26T12:30:09.507Z,8344
2018-04-26T12:31:08.841Z,8692
2018-04-26T12:32:09.083Z,8904
2018-04-26T12:33:08.842Z,10788
2018-04-26T12:34:10.184Z,10524
2018-04-26T12:35:09.616Z,8520
2018-04-26T12:36:08.591Z,8724
2018-04-26T12:37:09.337Z,10036
2018-04-26T12:38:09.334Z,10180
2018-04-26T12:39:10.109Z,10352
2018-04-26T12:40:09.520Z,10672
2018-04-26T12:41:09.350Z,10960
2018-04-26T12:42:09.803Z,11000
2018-04-26T12:43:09.098Z,8792
2018-04-26T12:44:09.890Z,9604
2018-04-26T12:45:09.785Z,9696
2018-04-26T12:46:09.113Z,9224
2018-04-26T12:47:09.350Z,9076
2018-04-26T12:48:09.103Z,7496
2018-04-26T12:49:09.343Z,9168
2018-04-26T12:50:09.540Z,9048
2018-04-26T12:51:09.352Z,10056
2018-04-26T12:52:08.859Z,10072
2018-04-26T12:53:09.355Z,8292
2018-04-26T12:54:09.357Z,7752
2018-04-26T12:55:09.847Z,7096
2018-04-26T12:56:09.164Z,8148
2018-04-26T12:57:09.120Z,6924
2018-04-26T12:58:09.645Z,7484
2018-04-26T12:59:09.120Z,7564
2018-04-26T13:00:09.761Z,7412
2018-04-26T13:01:09.435Z,7188
2018-04-26T13:02:08.880Z,7152
2018-04-26T13:03:09.403Z,6876
2018-04-26T13:04:09.125Z,6796
2018-04-26T13:05:09.790Z,6940
2018-04-26T13:06:09.405Z,7140
2018-04-26T13:07:09.127Z,7492
2018-04-26T13:08:09.218Z,7548
2018-04-26T13:09:09.127Z,9160
2018-04-26T13:10:09.829Z,7940
2018-04-26T13:11:09.125Z,7816
2018-04-26T13:12:08.997Z,7540
2018-04-26T13:13:08.880Z,7208
2018-04-26T13:14:09.380Z,6924
2018-04-26T13:15:09.589Z,6712
2018-04-26T13:16:09.129Z,7472
2018-04-26T13:17:09.513Z,7876
2018-04-26T13:18:09.391Z,7828
2018-04-26T13:19:09.149Z,7880
2018-04-26T13:20:09.812Z,7664
2018-04-26T13:21:09.645Z,6460
2018-04-26T13:22:09.392Z,6232
2018-04-26T13:23:09.449Z,6524
2018-04-26T13:24:09.144Z,8132
2018-04-26T13:25:09.566Z,8176
2018-04-26T13:26:09.153Z,8000
2018-04-26T13:27:09.400Z,7952
2018-04-26T13:28:08.895Z,8068
2018-04-26T13:29:09.226Z,7956
2018-04-26T13:30:09.815Z,7816
2018-04-26T13:31:09.395Z,8068
2018-04-26T13:32:09.418Z,8080
2018-04-26T13:33:09.178Z,7820
2018-04-26T13:34:09.142Z,6692
2018-04-26T13:35:09.831Z,6832
2018-04-26T13:36:09.152Z,8288
2018-04-26T13:37:09.149Z,8184
2018-04-26T13:38:09.159Z,8312
2018-04-26T13:39:09.161Z,7016
2018-04-26T13:40:09.282Z,7716
2018-04-26T13:41:08.897Z,8312
2018-04-26T13:42:09.150Z,8480
2018-04-26T13:43:09.154Z,8420
2018-04-26T13:44:09.401Z,8172
2018-04-26T13:45:09.231Z,8080
2018-04-26T13:46:09.209Z,8180
2018-04-26T13:47:09.160Z,7280
2018-04-26T13:48:09.412Z,8160
2018-04-26T13:49:08.907Z,8120
2018-04-26T13:50:09.296Z,8016
2018-04-26T13:51:09.174Z,7116
2018-04-26T13:52:09.281Z,7752
2018-04-26T13:53:09.168Z,7296
2018-04-26T13:54:09.430Z,7120
2018-04-26T13:55:09.230Z,7096
2018-04-26T13:56:09.160Z,7028
2018-04-26T13:57:08.667Z,7200
2018-04-26T13:58:09.183Z,7540
2018-04-26T13:59:09.464Z,6476
2018-04-26T14:00:09.844Z,6524
2018-04-26T14:01:09.441Z,7156
2018-04-26T14:02:09.424Z,5508
2018-04-26T14:03:08.929Z,5324
2018-04-26T14:04:09.428Z,5308
2018-04-26T14:05:09.880Z,5432
2018-04-26T14:06:09.503Z,5528
2018-04-26T14:07:09.189Z,5464
2018-04-26T14:08:09.567Z,5380
2018-04-26T14:09:09.434Z,5272
2018-04-26T14:10:09.592Z,6400
2018-04-26T14:11:09.242Z,6340
2018-04-26T14:12:09.526Z,6320
2018-04-26T14:13:09.445Z,6308
2018-04-26T14:14:08.942Z,5040
2018-04-26T14:15:09.612Z,4844
2018-04-26T14:16:09.506Z,4716
2018-04-26T14:17:09.441Z,4696
2018-04-26T14:18:08.973Z,4788
2018-04-26T14:19:08.948Z,4812
2018-04-26T14:20:09.853Z,4948
2018-04-26T14:21:09.197Z,4944
2018-04-26T14:22:09.224Z,6356
2018-04-26T14:23:09.124Z,6380
2018-04-26T14:24:09.191Z,6392
2018-04-26T14:25:09.846Z,6400
2018-04-26T14:26:09.447Z,6532